sensor_id;sensor_type;location;lat;lon;timestamp;temperature;humidity
27671;DHT22;15077;49.704;9.908;2023-05-07T00:00:28;18.60;57.80
27671;DHT22;15077;49.704;9.908;2023-05-07T00:02:54;18.60;57.80
27671;DHT22;15077;49.704;9.908;2023-05-07T00:05:20;18.60;57.90
27671;DHT22;15077;49.704;9.908;2023-05-07T00:07:46;18.50;57.90
27671;DHT22;15077;49.704;9.908;2023-05-07T00:10:13;18.50;58.00
27671;DHT22;15077;49.704;9.908;2023-05-07T00:12:39;18.50;58.00
27671;DHT22;15077;49.704;9.908;2023-05-07T00:15:06;18.50;58.10
27671;DHT22;15077;49.704;9.908;2023-05-07T00:17:33;18.50;58.10
27671;DHT22;15077;49.704;9.908;2023-05-07T00:19:59;18.50;58.20
27671;DHT22;15077;49.704;9.908;2023-05-07T00:22:25;18.40;58.70
27671;DHT22;15077;49.704;9.908;2023-05-07T00:24:52;18.40;58.10
27671;DHT22;15077;49.704;9.908;2023-05-07T00:27:18;18.40;58.30
27671;DHT22;15077;49.704;9.908;2023-05-07T00:29:43;18.40;58.20
27671;DHT22;15077;49.704;9.908;2023-05-07T00:32:12;18.40;58.20
27671;DHT22;15077;49.704;9.908;2023-05-07T00:34:38;18.30;58.10
27671;DHT22;15077;49.704;9.908;2023-05-07T00:37:06;18.30;58.20
27671;DHT22;15077;49.704;9.908;2023-05-07T00:39:33;18.30;58.20
27671;DHT22;15077;49.704;9.908;2023-05-07T00:42:00;18.30;58.20
27671;DHT22;15077;49.704;9.908;2023-05-07T00:44:26;18.30;58.30
27671;DHT22;15077;49.704;9.908;2023-05-07T00:46:53;18.30;58.30
27671;DHT22;15077;49.704;9.908;2023-05-07T00:49:19;18.20;58.30
27671;DHT22;15077;49.704;9.908;2023-05-07T00:51:45;18.20;58.30
27671;DHT22;15077;49.704;9.908;2023-05-07T00:54:13;18.20;58.20
27671;DHT22;15077;49.704;9.908;2023-05-07T00:56:40;18.20;58.20
27671;DHT22;15077;49.704;9.908;2023-05-07T00:59:07;18.10;58.20
27671;DHT22;15077;49.704;9.908;2023-05-07T01:01:35;18.10;58.10
27671;DHT22;15077;49.704;9.908;2023-05-07T01:04:06;18.10;58.10
27671;DHT22;15077;49.704;9.908;2023-05-07T01:06:33;18.00;58.20
27671;DHT22;15077;49.704;9.908;2023-05-07T01:09:01;18.00;58.20
27671;DHT22;15077;49.704;9.908;2023-05-07T01:11:30;18.00;58.30
27671;DHT22;15077;49.704;9.908;2023-05-07T01:13:58;18.00;58.30
27671;DHT22;15077;49.704;9.908;2023-05-07T01:16:26;17.90;58.30
27671;DHT22;15077;49.704;9.908;2023-05-07T01:18:54;17.90;58.30
27671;DHT22;15077;49.704;9.908;2023-05-07T01:21:24;17.90;58.30
27671;DHT22;15077;49.704;9.908;2023-05-07T01:23:54;17.90;58.40
27671;DHT22;15077;49.704;9.908;2023-05-07T01:26:21;17.80;58.30
27671;DHT22;15077;49.704;9.908;2023-05-07T01:28:50;17.80;58.60
27671;DHT22;15077;49.704;9.908;2023-05-07T01:31:18;17.80;58.50
27671;DHT22;15077;49.704;9.908;2023-05-07T01:33:48;17.80;58.50
27671;DHT22;15077;49.704;9.908;2023-05-07T01:36:15;17.80;58.50
27671;DHT22;15077;49.704;9.908;2023-05-07T01:38:46;17.70;58.40
27671;DHT22;15077;49.704;9.908;2023-05-07T01:41:17;17.70;58.50
27671;DHT22;15077;49.704;9.908;2023-05-07T01:43:44;17.70;58.50
27671;DHT22;15077;49.704;9.908;2023-05-07T01:46:13;17.60;58.50
27671;DHT22;15077;49.704;9.908;2023-05-07T01:48:41;17.60;58.50
27671;DHT22;15077;49.704;9.908;2023-05-07T01:51:11;17.60;58.60
27671;DHT22;15077;49.704;9.908;2023-05-07T01:53:39;17.60;58.60
27671;DHT22;15077;49.704;9.908;2023-05-07T01:56:08;17.50;58.60
27671;DHT22;15077;49.704;9.908;2023-05-07T01:58:35;17.50;58.60
27671;DHT22;15077;49.704;9.908;2023-05-07T02:01:00;17.50;58.60
27671;DHT22;15077;49.704;9.908;2023-05-07T02:03:26;17.50;58.70
27671;DHT22;15077;49.704;9.908;2023-05-07T02:05:53;17.40;58.70
27671;DHT22;15077;49.704;9.908;2023-05-07T02:08:26;17.40;58.70
27671;DHT22;15077;49.704;9.908;2023-05-07T02:10:53;17.40;58.70
27671;DHT22;15077;49.704;9.908;2023-05-07T02:13:20;17.40;58.80
27671;DHT22;15077;49.704;9.908;2023-05-07T02:15:48;17.30;58.70
27671;DHT22;15077;49.704;9.908;2023-05-07T02:18:16;17.30;58.70
27671;DHT22;15077;49.704;9.908;2023-05-07T02:20:43;17.30;58.80
27671;DHT22;15077;49.704;9.908;2023-05-07T02:23:09;17.30;58.80
27671;DHT22;15077;49.704;9.908;2023-05-07T02:25:35;17.30;59.00
27671;DHT22;15077;49.704;9.908;2023-05-07T02:28:01;17.20;59.00
27671;DHT22;15077;49.704;9.908;2023-05-07T02:30:28;17.20;59.00
27671;DHT22;15077;49.704;9.908;2023-05-07T02:32:55;17.20;59.00
27671;DHT22;15077;49.704;9.908;2023-05-07T02:35:20;17.20;59.00
27671;DHT22;15077;49.704;9.908;2023-05-07T02:37:47;17.20;59.00
27671;DHT22;15077;49.704;9.908;2023-05-07T02:40:14;17.10;59.10
27671;DHT22;15077;49.704;9.908;2023-05-07T02:42:41;17.10;59.20
27671;DHT22;15077;49.704;9.908;2023-05-07T02:45:08;17.10;59.20
27671;DHT22;15077;49.704;9.908;2023-05-07T02:47:35;17.10;59.30
27671;DHT22;15077;49.704;9.908;2023-05-07T02:50:01;17.10;59.30
27671;DHT22;15077;49.704;9.908;2023-05-07T02:52:28;17.00;59.30
27671;DHT22;15077;49.704;9.908;2023-05-07T02:54:56;17.00;59.30
27671;DHT22;15077;49.704;9.908;2023-05-07T02:57:23;17.00;59.40
27671;DHT22;15077;49.704;9.908;2023-05-07T02:59:50;17.00;59.50
27671;DHT22;15077;49.704;9.908;2023-05-07T03:02:20;17.00;59.50
27671;DHT22;15077;49.704;9.908;2023-05-07T03:04:47;17.00;59.50
27671;DHT22;15077;49.704;9.908;2023-05-07T03:07:13;17.00;59.50
27671;DHT22;15077;49.704;9.908;2023-05-07T03:09:40;17.00;59.50
27671;DHT22;15077;49.704;9.908;2023-05-07T03:12:07;17.00;59.60
27671;DHT22;15077;49.704;9.908;2023-05-07T03:14:32;17.00;59.70
27671;DHT22;15077;49.704;9.908;2023-05-07T03:16:59;17.00;59.60
27671;DHT22;15077;49.704;9.908;2023-05-07T03:19:27;17.00;59.70
27671;DHT22;15077;49.704;9.908;2023-05-07T03:21:54;17.00;59.70
27671;DHT22;15077;49.704;9.908;2023-05-07T03:24:21;17.00;60.30
27671;DHT22;15077;49.704;9.908;2023-05-07T03:26:48;17.00;59.70
27671;DHT22;15077;49.704;9.908;2023-05-07T03:29:15;17.00;59.80
27671;DHT22;15077;49.704;9.908;2023-05-07T03:31:41;17.00;59.70
27671;DHT22;15077;49.704;9.908;2023-05-07T03:34:07;16.90;59.70
27671;DHT22;15077;49.704;9.908;2023-05-07T03:36:34;16.90;59.70
27671;DHT22;15077;49.704;9.908;2023-05-07T03:39:02;16.90;59.80
27671;DHT22;15077;49.704;9.908;2023-05-07T03:41:29;16.90;59.80
27671;DHT22;15077;49.704;9.908;2023-05-07T03:43:55;16.90;59.80
27671;DHT22;15077;49.704;9.908;2023-05-07T03:46:21;16.90;59.80
27671;DHT22;15077;49.704;9.908;2023-05-07T03:48:47;16.90;60.00
27671;DHT22;15077;49.704;9.908;2023-05-07T03:51:13;16.90;59.90
27671;DHT22;15077;49.704;9.908;2023-05-07T03:53:39;16.80;60.00
27671;DHT22;15077;49.704;9.908;2023-05-07T03:56:05;16.80;59.90
27671;DHT22;15077;49.704;9.908;2023-05-07T03:58:32;16.80;60.00
27671;DHT22;15077;49.704;9.908;2023-05-07T04:00:59;16.80;60.10
27671;DHT22;15077;49.704;9.908;2023-05-07T04:03:25;16.80;60.20
27671;DHT22;15077;49.704;9.908;2023-05-07T04:05:50;16.80;60.20
27671;DHT22;15077;49.704;9.908;2023-05-07T04:08:16;16.80;60.30
27671;DHT22;15077;49.704;9.908;2023-05-07T04:10:42;16.80;60.30
27671;DHT22;15077;49.704;9.908;2023-05-07T04:13:07;16.80;60.40
27671;DHT22;15077;49.704;9.908;2023-05-07T04:15:33;16.80;60.40
27671;DHT22;15077;49.704;9.908;2023-05-07T04:18:00;16.70;60.40
27671;DHT22;15077;49.704;9.908;2023-05-07T04:20:26;16.70;60.40
27671;DHT22;15077;49.704;9.908;2023-05-07T04:22:51;16.70;60.50
27671;DHT22;15077;49.704;9.908;2023-05-07T04:25:17;16.70;60.60
27671;DHT22;15077;49.704;9.908;2023-05-07T04:27:43;16.70;60.60
27671;DHT22;15077;49.704;9.908;2023-05-07T04:30:09;16.70;60.60
27671;DHT22;15077;49.704;9.908;2023-05-07T04:32:35;16.70;60.60
27671;DHT22;15077;49.704;9.908;2023-05-07T04:35:02;16.70;60.70
27671;DHT22;15077;49.704;9.908;2023-05-07T04:37:29;16.70;60.80
27671;DHT22;15077;49.704;9.908;2023-05-07T04:39:54;16.70;60.80
27671;DHT22;15077;49.704;9.908;2023-05-07T04:42:20;16.70;60.80
27671;DHT22;15077;49.704;9.908;2023-05-07T04:44:46;16.70;60.90
27671;DHT22;15077;49.704;9.908;2023-05-07T04:47:12;16.70;60.90
27671;DHT22;15077;49.704;9.908;2023-05-07T04:49:40;16.70;61.00
27671;DHT22;15077;49.704;9.908;2023-05-07T04:52:06;16.70;61.10
27671;DHT22;15077;49.704;9.908;2023-05-07T04:54:32;16.70;61.70
27671;DHT22;15077;49.704;9.908;2023-05-07T04:56:57;16.80;61.10
27671;DHT22;15077;49.704;9.908;2023-05-07T04:59:23;16.80;61.20
27671;DHT22;15077;49.704;9.908;2023-05-07T05:01:49;16.80;61.30
27671;DHT22;15077;49.704;9.908;2023-05-07T05:04:15;16.80;61.30
27671;DHT22;15077;49.704;9.908;2023-05-07T05:06:40;16.80;61.50
27671;DHT22;15077;49.704;9.908;2023-05-07T05:09:06;16.80;61.50
27671;DHT22;15077;49.704;9.908;2023-05-07T05:11:32;16.80;61.50
27671;DHT22;15077;49.704;9.908;2023-05-07T05:13:59;16.80;61.50
27671;DHT22;15077;49.704;9.908;2023-05-07T05:16:25;16.90;61.50
27671;DHT22;15077;49.704;9.908;2023-05-07T05:18:51;16.90;61.50
27671;DHT22;15077;49.704;9.908;2023-05-07T05:21:17;16.90;61.60
27671;DHT22;15077;49.704;9.908;2023-05-07T05:23:43;16.90;61.80
27671;DHT22;15077;49.704;9.908;2023-05-07T05:26:09;16.90;61.80
27671;DHT22;15077;49.704;9.908;2023-05-07T05:28:35;17.00;61.90
27671;DHT22;15077;49.704;9.908;2023-05-07T05:31:01;17.00;61.90
27671;DHT22;15077;49.704;9.908;2023-05-07T05:33:26;17.00;61.90
27671;DHT22;15077;49.704;9.908;2023-05-07T05:35:54;17.00;62.40
27671;DHT22;15077;49.704;9.908;2023-05-07T05:38:20;17.00;62.10
27671;DHT22;15077;49.704;9.908;2023-05-07T05:40:46;17.10;62.10
27671;DHT22;15077;49.704;9.908;2023-05-07T05:43:13;17.10;62.40
27671;DHT22;15077;49.704;9.908;2023-05-07T05:45:39;17.10;62.40
27671;DHT22;15077;49.704;9.908;2023-05-07T05:48:05;17.10;62.60
27671;DHT22;15077;49.704;9.908;2023-05-07T05:50:31;17.20;62.80
27671;DHT22;15077;49.704;9.908;2023-05-07T05:52:57;17.20;62.80
27671;DHT22;15077;49.704;9.908;2023-05-07T05:55:23;17.20;63.70
27671;DHT22;15077;49.704;9.908;2023-05-07T05:57:49;17.20;62.90
27671;DHT22;15077;49.704;9.908;2023-05-07T06:00:16;17.20;63.10
27671;DHT22;15077;49.704;9.908;2023-05-07T06:02:42;17.30;63.40
27671;DHT22;15077;49.704;9.908;2023-05-07T06:05:10;17.30;63.20
27671;DHT22;15077;49.704;9.908;2023-05-07T06:07:36;17.30;63.30
27671;DHT22;15077;49.704;9.908;2023-05-07T06:10:02;17.30;63.40
27671;DHT22;15077;49.704;9.908;2023-05-07T06:12:27;17.30;63.60
27671;DHT22;15077;49.704;9.908;2023-05-07T06:14:53;17.30;63.70
27671;DHT22;15077;49.704;9.908;2023-05-07T06:17:19;17.30;63.80
27671;DHT22;15077;49.704;9.908;2023-05-07T06:19:45;17.30;63.90
27671;DHT22;15077;49.704;9.908;2023-05-07T06:22:11;17.30;64.00
27671;DHT22;15077;49.704;9.908;2023-05-07T06:24:36;17.40;64.60
27671;DHT22;15077;49.704;9.908;2023-05-07T06:27:02;17.40;64.60
27671;DHT22;15077;49.704;9.908;2023-05-07T06:29:28;17.40;64.50
27671;DHT22;15077;49.704;9.908;2023-05-07T06:31:56;17.40;65.00
27671;DHT22;15077;49.704;9.908;2023-05-07T06:34:32;17.40;65.00
27671;DHT22;15077;49.704;9.908;2023-05-07T06:36:57;17.50;65.20
27671;DHT22;15077;49.704;9.908;2023-05-07T06:39:23;17.50;65.70
27671;DHT22;15077;49.704;9.908;2023-05-07T06:41:49;17.50;65.90
27671;DHT22;15077;49.704;9.908;2023-05-07T06:44:15;17.60;65.80
27671;DHT22;15077;49.704;9.908;2023-05-07T06:46:41;17.60;65.90
27671;DHT22;15077;49.704;9.908;2023-05-07T06:49:07;17.70;65.80
27671;DHT22;15077;49.704;9.908;2023-05-07T06:51:33;17.70;65.70
27671;DHT22;15077;49.704;9.908;2023-05-07T06:53:59;17.70;65.40
27671;DHT22;15077;49.704;9.908;2023-05-07T06:56:25;17.80;65.50
27671;DHT22;15077;49.704;9.908;2023-05-07T06:58:51;17.90;65.60
27671;DHT22;15077;49.704;9.908;2023-05-07T07:01:16;17.90;65.60
27671;DHT22;15077;49.704;9.908;2023-05-07T07:03:42;18.00;65.60
27671;DHT22;15077;49.704;9.908;2023-05-07T07:06:08;18.00;65.60
27671;DHT22;15077;49.704;9.908;2023-05-07T07:08:34;18.10;65.70
27671;DHT22;15077;49.704;9.908;2023-05-07T07:11:00;18.10;65.70
27671;DHT22;15077;49.704;9.908;2023-05-07T07:13:26;18.20;65.80
27671;DHT22;15077;49.704;9.908;2023-05-07T07:15:52;18.20;65.70
27671;DHT22;15077;49.704;9.908;2023-05-07T07:18:19;18.30;65.70
27671;DHT22;15077;49.704;9.908;2023-05-07T07:20:44;18.30;65.70
27671;DHT22;15077;49.704;9.908;2023-05-07T07:23:10;18.30;65.90
27671;DHT22;15077;49.704;9.908;2023-05-07T07:25:36;18.40;66.00
27671;DHT22;15077;49.704;9.908;2023-05-07T07:28:02;18.50;65.80
27671;DHT22;15077;49.704;9.908;2023-05-07T07:30:27;18.50;65.80
27671;DHT22;15077;49.704;9.908;2023-05-07T07:32:54;18.60;65.70
27671;DHT22;15077;49.704;9.908;2023-05-07T07:35:21;18.70;65.60
27671;DHT22;15077;49.704;9.908;2023-05-07T07:37:48;18.70;65.60
27671;DHT22;15077;49.704;9.908;2023-05-07T07:40:15;18.80;65.30
27671;DHT22;15077;49.704;9.908;2023-05-07T07:42:41;18.90;65.30
27671;DHT22;15077;49.704;9.908;2023-05-07T07:45:08;18.90;65.30
27671;DHT22;15077;49.704;9.908;2023-05-07T07:47:33;19.00;65.50
27671;DHT22;15077;49.704;9.908;2023-05-07T07:49:59;19.00;65.60
27671;DHT22;15077;49.704;9.908;2023-05-07T07:52:25;19.10;65.10
27671;DHT22;15077;49.704;9.908;2023-05-07T07:54:51;19.20;65.50
27671;DHT22;15077;49.704;9.908;2023-05-07T07:57:17;19.20;64.60
27671;DHT22;15077;49.704;9.908;2023-05-07T07:59:42;19.30;64.70
27671;DHT22;15077;49.704;9.908;2023-05-07T08:02:09;19.30;64.50
27671;DHT22;15077;49.704;9.908;2023-05-07T08:04:34;19.40;64.70
27671;DHT22;15077;49.704;9.908;2023-05-07T08:07:00;19.40;64.80
27671;DHT22;15077;49.704;9.908;2023-05-07T08:09:26;19.50;64.50
27671;DHT22;15077;49.704;9.908;2023-05-07T08:11:53;19.50;64.40
27671;DHT22;15077;49.704;9.908;2023-05-07T08:14:18;19.60;64.20
27671;DHT22;15077;49.704;9.908;2023-05-07T08:16:44;19.70;64.30
27671;DHT22;15077;49.704;9.908;2023-05-07T08:19:10;19.70;64.10
27671;DHT22;15077;49.704;9.908;2023-05-07T08:21:39;19.80;64.00
27671;DHT22;15077;49.704;9.908;2023-05-07T08:24:05;19.80;64.00
27671;DHT22;15077;49.704;9.908;2023-05-07T08:26:31;19.90;64.00
27671;DHT22;15077;49.704;9.908;2023-05-07T08:28:57;19.90;64.30
27671;DHT22;15077;49.704;9.908;2023-05-07T08:31:22;20.00;63.90
27671;DHT22;15077;49.704;9.908;2023-05-07T08:33:50;20.00;63.40
27671;DHT22;15077;49.704;9.908;2023-05-07T08:36:15;20.00;63.50
27671;DHT22;15077;49.704;9.908;2023-05-07T08:38:41;20.10;63.50
27671;DHT22;15077;49.704;9.908;2023-05-07T08:41:10;20.00;63.50
27671;DHT22;15077;49.704;9.908;2023-05-07T08:43:36;20.10;63.40
27671;DHT22;15077;49.704;9.908;2023-05-07T08:46:06;20.10;63.60
27671;DHT22;15077;49.704;9.908;2023-05-07T08:48:35;20.10;64.20
27671;DHT22;15077;49.704;9.908;2023-05-07T08:51:01;20.20;63.60
27671;DHT22;15077;49.704;9.908;2023-05-07T08:53:27;20.30;63.30
27671;DHT22;15077;49.704;9.908;2023-05-07T08:55:53;20.30;63.10
27671;DHT22;15077;49.704;9.908;2023-05-07T08:58:19;20.30;63.20
27671;DHT22;15077;49.704;9.908;2023-05-07T09:00:44;20.30;62.90
27671;DHT22;15077;49.704;9.908;2023-05-07T09:03:12;20.30;63.10
27671;DHT22;15077;49.704;9.908;2023-05-07T09:05:38;20.30;63.40
27671;DHT22;15077;49.704;9.908;2023-05-07T09:08:05;20.40;63.80
27671;DHT22;15077;49.704;9.908;2023-05-07T09:10:35;20.40;63.60
27671;DHT22;15077;49.704;9.908;2023-05-07T09:13:02;20.50;63.40
27671;DHT22;15077;49.704;9.908;2023-05-07T09:15:28;20.50;63.30
27671;DHT22;15077;49.704;9.908;2023-05-07T09:17:54;20.50;63.40
27671;DHT22;15077;49.704;9.908;2023-05-07T09:20:26;20.60;63.50
27671;DHT22;15077;49.704;9.908;2023-05-07T09:22:52;20.70;63.40
27671;DHT22;15077;49.704;9.908;2023-05-07T09:25:32;20.80;63.90
27671;DHT22;15077;49.704;9.908;2023-05-07T09:27:59;20.90;63.70
27671;DHT22;15077;49.704;9.908;2023-05-07T09:30:33;20.90;63.30
27671;DHT22;15077;49.704;9.908;2023-05-07T09:33:03;21.00;63.40
27671;DHT22;15077;49.704;9.908;2023-05-07T09:35:30;21.10;63.20
27671;DHT22;15077;49.704;9.908;2023-05-07T09:37:57;21.20;63.30
27671;DHT22;15077;49.704;9.908;2023-05-07T09:40:29;21.30;63.60
27671;DHT22;15077;49.704;9.908;2023-05-07T09:42:56;21.30;63.30
27671;DHT22;15077;49.704;9.908;2023-05-07T09:45:33;21.40;63.10
27671;DHT22;15077;49.704;9.908;2023-05-07T09:48:00;21.50;63.10
27671;DHT22;15077;49.704;9.908;2023-05-07T09:50:34;21.50;63.40
27671;DHT22;15077;49.704;9.908;2023-05-07T09:53:03;21.70;62.90
27671;DHT22;15077;49.704;9.908;2023-05-07T09:55:30;21.80;62.40
27671;DHT22;15077;49.704;9.908;2023-05-07T09:57:57;21.90;63.20
27671;DHT22;15077;49.704;9.908;2023-05-07T10:00:25;21.90;62.40
27671;DHT22;15077;49.704;9.908;2023-05-07T10:02:53;22.00;61.50
27671;DHT22;15077;49.704;9.908;2023-05-07T10:05:21;22.10;61.30
27671;DHT22;15077;49.704;9.908;2023-05-07T10:07:48;22.10;61.50
27671;DHT22;15077;49.704;9.908;2023-05-07T10:10:18;22.20;61.50
27671;DHT22;15077;49.704;9.908;2023-05-07T10:12:43;22.30;61.50
27671;DHT22;15077;49.704;9.908;2023-05-07T10:15:11;22.40;61.10
27671;DHT22;15077;49.704;9.908;2023-05-07T10:17:40;22.50;60.70
27671;DHT22;15077;49.704;9.908;2023-05-07T10:20:07;22.50;60.90
27671;DHT22;15077;49.704;9.908;2023-05-07T10:22:44;22.60;60.40
27671;DHT22;15077;49.704;9.908;2023-05-07T10:25:23;22.70;60.60
27671;DHT22;15077;49.704;9.908;2023-05-07T10:27:57;22.70;60.70
27671;DHT22;15077;49.704;9.908;2023-05-07T10:33:28;22.90;61.00
27671;DHT22;15077;49.704;9.908;2023-05-07T10:36:00;23.00;60.50
27671;DHT22;15077;49.704;9.908;2023-05-07T10:38:29;23.10;60.90
27671;DHT22;15077;49.704;9.908;2023-05-07T10:40:55;23.20;60.40
27671;DHT22;15077;49.704;9.908;2023-05-07T10:43:22;23.30;60.00
27671;DHT22;15077;49.704;9.908;2023-05-07T10:46:13;23.40;59.00
27671;DHT22;15077;49.704;9.908;2023-05-07T10:49:06;23.60;59.40
27671;DHT22;15077;49.704;9.908;2023-05-07T10:51:33;23.70;59.20
27671;DHT22;15077;49.704;9.908;2023-05-07T10:56:41;23.80;58.40
27671;DHT22;15077;49.704;9.908;2023-05-07T11:01:57;23.90;58.20
27671;DHT22;15077;49.704;9.908;2023-05-07T11:04:24;23.90;57.80
27671;DHT22;15077;49.704;9.908;2023-05-07T11:15:08;24.00;57.90
27671;DHT22;15077;49.704;9.908;2023-05-07T11:17:57;24.00;57.50
27671;DHT22;15077;49.704;9.908;2023-05-07T11:26:08;24.20;58.10
27671;DHT22;15077;49.704;9.908;2023-05-07T11:28:42;24.30;57.90
27671;DHT22;15077;49.704;9.908;2023-05-07T11:31:09;24.40;57.40
27671;DHT22;15077;49.704;9.908;2023-05-07T11:33:37;24.50;57.00
27671;DHT22;15077;49.704;9.908;2023-05-07T11:36:04;24.50;56.30
27671;DHT22;15077;49.704;9.908;2023-05-07T11:38:30;24.60;56.50
27671;DHT22;15077;49.704;9.908;2023-05-07T11:41:00;24.70;56.40
27671;DHT22;15077;49.704;9.908;2023-05-07T11:43:26;24.70;56.60
27671;DHT22;15077;49.704;9.908;2023-05-07T11:45:52;24.90;56.30
27671;DHT22;15077;49.704;9.908;2023-05-07T11:48:18;24.90;55.80
27671;DHT22;15077;49.704;9.908;2023-05-07T11:50:54;25.00;56.20
27671;DHT22;15077;49.704;9.908;2023-05-07T11:53:27;25.00;56.20
27671;DHT22;15077;49.704;9.908;2023-05-07T11:55:57;25.10;55.80
27671;DHT22;15077;49.704;9.908;2023-05-07T11:58:24;25.20;56.20
27671;DHT22;15077;49.704;9.908;2023-05-07T12:00:51;25.20;55.50
27671;DHT22;15077;49.704;9.908;2023-05-07T12:03:19;25.20;55.90
27671;DHT22;15077;49.704;9.908;2023-05-07T12:05:46;25.30;55.30
27671;DHT22;15077;49.704;9.908;2023-05-07T12:08:19;25.30;55.30
27671;DHT22;15077;49.704;9.908;2023-05-07T12:10:48;25.40;55.70
27671;DHT22;15077;49.704;9.908;2023-05-07T12:13:19;25.40;53.90
27671;DHT22;15077;49.704;9.908;2023-05-07T12:15:53;25.40;54.20
27671;DHT22;15077;49.704;9.908;2023-05-07T12:18:21;25.50;54.00
27671;DHT22;15077;49.704;9.908;2023-05-07T12:20:48;25.50;54.00
27671;DHT22;15077;49.704;9.908;2023-05-07T12:23:15;25.60;55.20
27671;DHT22;15077;49.704;9.908;2023-05-07T12:25:42;25.60;54.30
27671;DHT22;15077;49.704;9.908;2023-05-07T12:28:18;25.60;53.10
27671;DHT22;15077;49.704;9.908;2023-05-07T12:30:47;25.70;53.80
27671;DHT22;15077;49.704;9.908;2023-05-07T12:33:18;25.70;54.00
27671;DHT22;15077;49.704;9.908;2023-05-07T12:35:48;25.70;54.40
27671;DHT22;15077;49.704;9.908;2023-05-07T12:38:16;25.70;54.00
27671;DHT22;15077;49.704;9.908;2023-05-07T12:40:48;25.80;53.50
27671;DHT22;15077;49.704;9.908;2023-05-07T12:43:27;25.80;53.60
27671;DHT22;15077;49.704;9.908;2023-05-07T12:45:57;25.80;53.80
27671;DHT22;15077;49.704;9.908;2023-05-07T12:48:27;25.80;53.80
27671;DHT22;15077;49.704;9.908;2023-05-07T12:50:54;25.90;53.60
27671;DHT22;15077;49.704;9.908;2023-05-07T12:53:24;25.90;52.40
27671;DHT22;15077;49.704;9.908;2023-05-07T12:55:56;25.90;51.70
27671;DHT22;15077;49.704;9.908;2023-05-07T12:58:29;25.90;51.90
27671;DHT22;15077;49.704;9.908;2023-05-07T13:00:58;25.90;51.80
27671;DHT22;15077;49.704;9.908;2023-05-07T13:05:52;25.90;51.10
27671;DHT22;15077;49.704;9.908;2023-05-07T13:08:26;26.00;51.20
27671;DHT22;15077;49.704;9.908;2023-05-07T13:10:54;26.00;51.50
27671;DHT22;15077;49.704;9.908;2023-05-07T13:13:20;26.10;49.60
27671;DHT22;15077;49.704;9.908;2023-05-07T13:15:47;26.10;49.20
27671;DHT22;15077;49.704;9.908;2023-05-07T13:18:13;26.10;49.70
27671;DHT22;15077;49.704;9.908;2023-05-07T13:20:39;26.20;49.70
27671;DHT22;15077;49.704;9.908;2023-05-07T13:23:06;26.20;49.60
27671;DHT22;15077;49.704;9.908;2023-05-07T13:25:32;26.30;48.00
27671;DHT22;15077;49.704;9.908;2023-05-07T13:27:57;26.40;46.60
27671;DHT22;15077;49.704;9.908;2023-05-07T13:30:23;26.40;46.30
27671;DHT22;15077;49.704;9.908;2023-05-07T13:32:49;26.40;45.90
27671;DHT22;15077;49.704;9.908;2023-05-07T13:35:16;26.40;45.70
27671;DHT22;15077;49.704;9.908;2023-05-07T13:37:42;26.40;45.20
27671;DHT22;15077;49.704;9.908;2023-05-07T13:40:08;26.40;46.10
27671;DHT22;15077;49.704;9.908;2023-05-07T13:42:34;26.40;46.50
27671;DHT22;15077;49.704;9.908;2023-05-07T13:45:00;26.40;47.20
27671;DHT22;15077;49.704;9.908;2023-05-07T13:47:26;26.50;46.50
27671;DHT22;15077;49.704;9.908;2023-05-07T13:49:51;26.60;47.40
27671;DHT22;15077;49.704;9.908;2023-05-07T13:52:17;26.60;47.10
27671;DHT22;15077;49.704;9.908;2023-05-07T13:54:44;26.60;47.80
27671;DHT22;15077;49.704;9.908;2023-05-07T13:57:10;26.60;47.40
27671;DHT22;15077;49.704;9.908;2023-05-07T13:59:36;26.60;47.30
27671;DHT22;15077;49.704;9.908;2023-05-07T14:02:01;26.60;47.10
27671;DHT22;15077;49.704;9.908;2023-05-07T14:04:27;26.60;47.50
27671;DHT22;15077;49.704;9.908;2023-05-07T14:06:53;26.60;48.60
27671;DHT22;15077;49.704;9.908;2023-05-07T14:09:18;26.70;47.40
27671;DHT22;15077;49.704;9.908;2023-05-07T14:11:44;26.70;46.60
27671;DHT22;15077;49.704;9.908;2023-05-07T14:14:11;26.70;45.60
27671;DHT22;15077;49.704;9.908;2023-05-07T14:16:37;26.70;45.40
27671;DHT22;15077;49.704;9.908;2023-05-07T14:19:03;26.70;46.60
27671;DHT22;15077;49.704;9.908;2023-05-07T14:21:29;26.70;46.70
27671;DHT22;15077;49.704;9.908;2023-05-07T14:23:55;26.80;47.00
27671;DHT22;15077;49.704;9.908;2023-05-07T14:26:22;26.80;45.50
27671;DHT22;15077;49.704;9.908;2023-05-07T14:28:48;26.80;45.30
27671;DHT22;15077;49.704;9.908;2023-05-07T14:31:14;26.80;45.40
27671;DHT22;15077;49.704;9.908;2023-05-07T14:33:40;26.80;45.90
27671;DHT22;15077;49.704;9.908;2023-05-07T14:36:06;26.90;46.20
27671;DHT22;15077;49.704;9.908;2023-05-07T14:38:32;27.00;45.00
27671;DHT22;15077;49.704;9.908;2023-05-07T14:40:58;27.00;44.20
27671;DHT22;15077;49.704;9.908;2023-05-07T14:43:24;27.00;45.20
27671;DHT22;15077;49.704;9.908;2023-05-07T14:45:50;26.90;46.40
27671;DHT22;15077;49.704;9.908;2023-05-07T14:48:15;26.90;47.50
27671;DHT22;15077;49.704;9.908;2023-05-07T14:50:42;26.90;47.30
27671;DHT22;15077;49.704;9.908;2023-05-07T14:53:08;26.80;47.70
27671;DHT22;15077;49.704;9.908;2023-05-07T14:55:34;26.80;47.90
27671;DHT22;15077;49.704;9.908;2023-05-07T14:58:00;26.80;47.00
27671;DHT22;15077;49.704;9.908;2023-05-07T15:00:26;26.80;47.10
27671;DHT22;15077;49.704;9.908;2023-05-07T15:02:54;26.70;47.50
27671;DHT22;15077;49.704;9.908;2023-05-07T15:05:27;26.70;48.20
27671;DHT22;15077;49.704;9.908;2023-05-07T15:07:53;26.60;48.40
27671;DHT22;15077;49.704;9.908;2023-05-07T15:10:18;26.50;47.90
27671;DHT22;15077;49.704;9.908;2023-05-07T15:12:44;26.50;47.90
27671;DHT22;15077;49.704;9.908;2023-05-07T15:15:10;26.40;48.00
27671;DHT22;15077;49.704;9.908;2023-05-07T15:17:36;26.20;47.70
27671;DHT22;15077;49.704;9.908;2023-05-07T15:20:02;26.10;48.20
27671;DHT22;15077;49.704;9.908;2023-05-07T15:22:30;26.00;48.00
27671;DHT22;15077;49.704;9.908;2023-05-07T15:24:59;26.00;48.60
27671;DHT22;15077;49.704;9.908;2023-05-07T15:27:25;25.90;48.80
27671;DHT22;15077;49.704;9.908;2023-05-07T15:29:51;25.80;49.00
27671;DHT22;15077;49.704;9.908;2023-05-07T15:32:17;25.70;49.10
27671;DHT22;15077;49.704;9.908;2023-05-07T15:34:43;25.60;49.10
27671;DHT22;15077;49.704;9.908;2023-05-07T15:37:09;25.60;49.00
27671;DHT22;15077;49.704;9.908;2023-05-07T15:39:35;25.50;49.30
27671;DHT22;15077;49.704;9.908;2023-05-07T15:42:01;25.40;49.50
27671;DHT22;15077;49.704;9.908;2023-05-07T15:44:27;25.30;49.60
27671;DHT22;15077;49.704;9.908;2023-05-07T15:47:00;25.20;49.60
27671;DHT22;15077;49.704;9.908;2023-05-07T15:49:26;25.20;49.80
27671;DHT22;15077;49.704;9.908;2023-05-07T15:51:51;25.10;49.80
27671;DHT22;15077;49.704;9.908;2023-05-07T15:54:19;25.00;50.00